createdAt,value
2018-12-22T00:00:50.857Z,2.50
2018-12-22T00:03:18.929Z,5.97
2018-12-22T00:05:46.984Z,2.97
2018-12-22T00:08:15.372Z,2.57
2018-12-22T00:10:43.536Z,3.33
2018-12-22T00:13:11.715Z,2.20
2018-12-22T00:15:40.193Z,5.33
2018-12-22T00:18:08.326Z,6.33
2018-12-22T00:20:37.377Z,3.93
2018-12-22T00:23:05.615Z,4.67
2018-12-22T00:25:33.710Z,4.03
2018-12-22T00:28:01.943Z,7.43
2018-12-22T00:30:30.213Z,4.17
2018-12-22T00:32:58.651Z,3.57
2018-12-22T00:35:26.780Z,4.93
2018-12-22T00:37:55.772Z,7.37
2018-12-22T00:40:25.421Z,4.10
2018-12-22T00:42:53.547Z,3.30
2018-12-22T00:45:21.919Z,3.43
2018-12-22T00:47:50.027Z,4.57
2018-12-22T00:50:18.152Z,4.30
2018-12-22T00:52:46.611Z,2.33
2018-12-22T00:55:14.679Z,2.40
2018-12-22T00:57:42.880Z,4.10
2018-12-22T01:00:11.201Z,2.67
2018-12-22T01:02:39.419Z,2.23
2018-12-22T01:05:07.513Z,3.13
2018-12-22T01:07:35.847Z,2.67
2018-12-22T01:10:05.358Z,2.53
2018-12-22T01:12:33.435Z,4.40
2018-12-22T01:15:01.570Z,3.03
2018-12-22T01:17:29.887Z,3.37
2018-12-22T01:19:57.947Z,4.60
2018-12-22T01:22:26.011Z,3.23
2018-12-22T01:24:54.393Z,2.83
2018-12-22T01:27:22.599Z,6.90
2018-12-22T01:29:50.676Z,2.40
2018-12-22T01:32:18.947Z,3.10
2018-12-22T01:34:47.011Z,3.47
2018-12-22T01:37:15.139Z,4.10
2018-12-22T01:39:43.447Z,3.83
2018-12-22T01:42:11.658Z,5.07
2018-12-22T01:44:39.762Z,3.50
2018-12-22T01:47:08.019Z,3.87
2018-12-22T01:49:36.279Z,2.17
2018-12-22T01:52:06.308Z,3.97
2018-12-22T01:54:34.406Z,2.30
2018-12-22T01:57:02.627Z,2.33
2018-12-22T01:59:30.691Z,2.33
2018-12-22T02:01:58.940Z,2.77
2018-12-22T02:04:27.106Z,5.03
2018-12-22T02:06:55.404Z,2.80
2018-12-22T02:09:23.635Z,2.57
2018-12-22T02:11:51.763Z,3.50
2018-12-22T02:14:19.979Z,4.00
2018-12-22T02:16:48.074Z,3.73
2018-12-22T02:19:16.125Z,4.70
2018-12-22T02:21:44.607Z,4.63
2018-12-22T02:24:12.788Z,3.57
2018-12-22T02:26:41.155Z,4.63
2018-12-22T02:29:09.256Z,4.10
2018-12-22T02:31:37.462Z,3.47
2018-12-22T02:34:05.844Z,3.40
2018-12-22T02:36:33.998Z,3.20
2018-12-22T02:39:02.157Z,4.23
2018-12-22T02:41:30.731Z,4.13
2018-12-22T02:43:58.983Z,3.90
2018-12-22T02:46:27.067Z,5.67
2018-12-22T02:48:55.259Z,4.60
2018-12-22T02:51:23.908Z,4.33
2018-12-22T02:53:52.995Z,3.53
2018-12-22T02:56:21.563Z,4.23
2018-12-22T02:58:50.365Z,5.97
2018-12-22T03:01:19.035Z,4.47
2018-12-22T03:03:47.627Z,4.63
2018-12-22T03:06:15.831Z,8.67
2018-12-22T03:08:43.931Z,6.70
2018-12-22T03:11:12.395Z,7.63
2018-12-22T03:13:40.455Z,4.80
2018-12-22T03:16:08.739Z,6.60
2018-12-22T03:18:37.244Z,5.20
2018-12-22T03:21:05.331Z,4.70
2018-12-22T03:23:34.228Z,4.57
2018-12-22T03:26:03.671Z,8.03
2018-12-22T03:28:31.919Z,9.93
2018-12-22T03:31:00.753Z,7.13
2018-12-22T03:33:29.548Z,9.00
2018-12-22T03:35:58.024Z,6.60
2018-12-22T03:38:27.901Z,6.13
2018-12-22T03:40:56.255Z,5.70
2018-12-22T03:43:24.898Z,7.27
2018-12-22T03:45:53.355Z,7.80
2018-12-22T03:48:21.676Z,4.90
2018-12-22T03:50:50.019Z,9.67
2018-12-22T03:53:18.295Z,9.63
2018-12-22T03:55:46.429Z,8.00
2018-12-22T03:58:15.370Z,6.47
2018-12-22T04:00:43.935Z,7.20
2018-12-22T04:03:12.560Z,5.77
2018-12-22T04:05:40.888Z,6.10
2018-12-22T04:08:10.212Z,6.90
2018-12-22T04:10:39.051Z,8.10
2018-12-22T04:13:07.392Z,7.37
2018-12-22T04:15:35.567Z,8.87
2018-12-22T04:18:04.558Z,7.00
2018-12-22T04:20:33.702Z,8.00
2018-12-22T04:23:01.946Z,5.00
2018-12-22T04:25:30.123Z,4.67
2018-12-22T04:27:58.331Z,7.13
2018-12-22T04:30:26.483Z,5.10
2018-12-22T04:32:54.539Z,6.33
2018-12-22T04:35:22.772Z,5.30
2018-12-22T04:37:51.016Z,7.33
2018-12-22T04:40:19.244Z,6.53
2018-12-22T04:42:47.341Z,6.70
2018-12-22T04:45:15.527Z,5.90
2018-12-22T04:47:43.897Z,5.67
2018-12-22T04:50:12.107Z,4.47
2018-12-22T04:52:40.298Z,5.03
2018-12-22T04:55:08.609Z,6.00
2018-12-22T04:57:36.766Z,6.77
2018-12-22T05:00:05.612Z,7.03
2018-12-22T05:02:33.763Z,7.77
2018-12-22T05:05:02.077Z,6.37
2018-12-22T05:07:30.312Z,6.73
2018-12-22T05:09:58.395Z,10.23
2018-12-22T05:12:26.456Z,9.17
2018-12-22T05:14:54.786Z,6.30
2018-12-22T05:17:22.913Z,5.97
2018-12-22T05:19:50.995Z,6.40
2018-12-22T05:22:19.063Z,5.27
2018-12-22T05:24:47.215Z,6.20
2018-12-22T05:27:15.268Z,7.57
2018-12-22T05:29:51.761Z,9.10
2018-12-22T05:32:14.711Z,8.63
2018-12-22T05:34:42.914Z,9.40
2018-12-22T05:37:11.200Z,7.43
2018-12-22T05:39:39.480Z,8.83
2018-12-22T05:42:08.170Z,7.77
2018-12-22T05:44:36.435Z,9.27
2018-12-22T05:47:05.135Z,7.33
2018-12-22T05:49:33.583Z,8.50
2018-12-22T05:52:01.804Z,10.47
2018-12-22T05:54:29.935Z,7.07
2018-12-22T05:56:58.475Z,9.33
2018-12-22T05:59:27.699Z,7.40
2018-12-22T06:01:55.972Z,10.47
2018-12-22T06:04:24.128Z,9.97
2018-12-22T06:06:52.215Z,10.70
2018-12-22T06:09:20.526Z,11.17
2018-12-22T06:11:48.674Z,10.33
2018-12-22T06:14:16.835Z,9.00
2018-12-22T06:16:45.115Z,8.07
2018-12-22T06:19:13.307Z,11.90
2018-12-22T06:21:41.443Z,8.47
2018-12-22T06:24:09.627Z,10.07
2018-12-22T06:26:37.692Z,9.33
2018-12-22T06:29:05.863Z,8.50
2018-12-22T06:31:34.382Z,6.63
2018-12-22T06:34:02.539Z,11.20
2018-12-22T06:36:30.663Z,8.20
2018-12-22T06:38:58.871Z,7.67
2018-12-22T06:41:27.208Z,11.73
2018-12-22T06:43:55.525Z,11.20
2018-12-22T06:46:23.792Z,8.47
2018-12-22T06:48:52.643Z,10.97
2018-12-22T06:51:20.803Z,10.53
2018-12-22T06:53:49.113Z,9.40
2018-12-22T06:56:17.261Z,11.27
2018-12-22T06:58:46.636Z,8.90
2018-12-22T07:01:16.164Z,11.37
2018-12-22T07:03:44.687Z,8.60
2018-12-22T07:06:13.505Z,10.27
2018-12-22T07:08:43.728Z,10.27
2018-12-22T07:11:11.820Z,11.27
2018-12-22T07:13:40.824Z,8.97
2018-12-22T07:16:09.683Z,13.10
2018-12-22T07:18:37.879Z,13.70
2018-12-22T07:21:06.120Z,15.63
2018-12-22T07:23:35.122Z,11.60
2018-12-22T07:26:03.679Z,15.47
2018-12-22T07:28:31.767Z,12.40
2018-12-22T07:31:00.671Z,13.10
2018-12-22T07:33:29.276Z,19.07
2018-12-22T07:35:57.811Z,17.73
2018-12-22T07:38:26.671Z,12.23
2018-12-22T07:40:55.235Z,12.17
2018-12-22T07:43:23.467Z,11.53
2018-12-22T07:45:51.543Z,12.00
2018-12-22T07:48:20.337Z,15.43
2018-12-22T07:50:48.483Z,17.87
2018-12-22T07:53:16.562Z,13.63
2018-12-22T07:55:44.837Z,18.20
2018-12-22T07:58:13.287Z,16.70
2018-12-22T08:00:41.679Z,20.20
2018-12-22T08:03:10.988Z,15.90
2018-12-22T08:05:39.201Z,19.87
2018-12-22T08:08:07.616Z,17.63
2018-12-22T08:10:35.939Z,17.55
2018-12-22T08:13:04.191Z,17.40
2018-12-22T08:15:32.647Z,12.60
2018-12-22T08:18:00.799Z,13.20
2018-12-22T08:20:28.998Z,11.13
2018-12-22T08:22:57.183Z,11.17
2018-12-22T08:25:25.295Z,14.70
2018-12-22T08:27:53.404Z,16.57
2018-12-22T08:30:22.119Z,15.83
2018-12-22T08:32:50.260Z,14.30
2018-12-22T08:35:18.508Z,12.93
2018-12-22T08:37:46.639Z,12.53
2018-12-22T08:40:14.772Z,12.43
2018-12-22T08:42:43.096Z,12.27
2018-12-22T08:45:14.832Z,10.43
2018-12-22T08:47:43.303Z,13.00
2018-12-22T08:50:11.419Z,14.20
2018-12-22T08:52:39.618Z,14.70
2018-12-22T08:55:08.252Z,15.37
2018-12-22T08:57:37.898Z,13.33
2018-12-22T09:00:09.387Z,12.63
2018-12-22T09:02:38.103Z,12.97
2018-12-22T09:05:06.753Z,13.17
2018-12-22T09:07:35.295Z,14.87
2018-12-22T09:10:04.126Z,11.73
2018-12-22T09:12:32.482Z,13.40
2018-12-22T09:15:00.690Z,14.30
2018-12-22T09:17:29.748Z,13.43
2018-12-22T09:19:58.893Z,14.50
2018-12-22T09:22:26.976Z,12.23
2018-12-22T09:24:55.124Z,15.27
2018-12-22T09:27:23.286Z,13.03
2018-12-22T09:29:51.365Z,9.67
2018-12-22T09:32:19.498Z,13.17
2018-12-22T09:34:47.677Z,11.50
2018-12-22T09:37:15.848Z,11.77
2018-12-22T09:39:43.923Z,11.90
2018-12-22T09:42:12.051Z,9.30
2018-12-22T09:44:40.215Z,10.30
2018-12-22T09:47:08.457Z,9.60
2018-12-22T09:49:36.534Z,11.00
2018-12-22T09:52:04.977Z,10.33
2018-12-22T09:54:33.272Z,9.30
2018-12-22T09:57:01.374Z,9.53
2018-12-22T09:59:29.765Z,9.97
2018-12-22T10:01:57.949Z,10.13
2018-12-22T10:04:26.032Z,8.33
2018-12-22T10:06:54.263Z,9.07
2018-12-22T10:09:22.324Z,9.20
2018-12-22T10:11:50.547Z,8.10
2018-12-22T10:14:18.823Z,10.47
2018-12-22T10:16:47.107Z,7.80
2018-12-22T10:19:15.172Z,7.97
2018-12-22T10:21:43.255Z,12.93
2018-12-22T10:24:11.401Z,10.23
2018-12-22T10:26:39.587Z,12.43
2018-12-22T10:29:07.780Z,8.80
2018-12-22T10:31:36.078Z,9.70
2018-12-22T10:34:04.265Z,12.00
2018-12-22T10:36:32.499Z,11.50
2018-12-22T10:39:00.583Z,11.40
2018-12-22T10:41:28.783Z,8.47
2018-12-22T10:43:57.251Z,7.77
2018-12-22T10:46:25.386Z,8.27
2018-12-22T10:48:53.540Z,6.03
2018-12-22T10:51:24.442Z,7.50
2018-12-22T10:53:51.684Z,6.40
2018-12-22T10:56:19.777Z,9.50
2018-12-22T10:58:48.794Z,7.90
2018-12-22T11:01:16.907Z,8.83
2018-12-22T11:03:45.052Z,7.07
2018-12-22T11:06:13.216Z,6.83
2018-12-22T11:08:42.429Z,7.07
2018-12-22T11:11:10.747Z,5.63
2018-12-22T11:13:38.858Z,9.13
2018-12-22T11:16:07.079Z,7.23
2018-12-22T11:18:35.222Z,6.27
2018-12-22T11:21:03.456Z,6.37
2018-12-22T11:23:31.948Z,5.43
2018-12-22T11:26:00.159Z,7.50
2018-12-22T11:28:28.419Z,4.80
2018-12-22T11:30:56.623Z,4.97
2018-12-22T11:33:24.711Z,5.97
2018-12-22T11:35:52.967Z,4.07
2018-12-22T11:38:21.159Z,6.20
2018-12-22T11:40:50.173Z,5.23
2018-12-22T11:43:18.298Z,5.33
2018-12-22T11:45:46.643Z,5.83
2018-12-22T11:50:30.744Z,5.10
2018-12-22T11:52:59.040Z,6.03
2018-12-22T11:55:27.259Z,4.97
2018-12-22T11:57:55.767Z,4.60
2018-12-22T12:00:24.103Z,4.20
2018-12-22T12:02:52.239Z,5.63
2018-12-22T12:05:20.399Z,5.47
2018-12-22T12:07:48.553Z,4.80
2018-12-22T12:10:16.735Z,5.70
2018-12-22T12:12:45.136Z,3.97
2018-12-22T12:15:17.227Z,5.97
2018-12-22T12:17:58.007Z,4.83
2018-12-22T12:20:26.123Z,5.20
2018-12-22T12:22:54.319Z,4.47
2018-12-22T12:25:22.432Z,5.07
2018-12-22T12:27:51.308Z,4.27
2018-12-22T12:30:19.459Z,5.30
2018-12-22T12:32:47.823Z,3.97
2018-12-22T12:35:16.017Z,6.20
2018-12-22T12:37:45.035Z,4.23
2018-12-22T12:40:14.723Z,5.43
2018-12-22T12:42:43.211Z,4.57
2018-12-22T12:46:43.068Z,6.17
2018-12-22T12:49:11.615Z,6.43
2018-12-22T12:51:40.227Z,6.77
2018-12-22T12:54:08.531Z,7.03
2018-12-22T12:56:39.443Z,6.50
2018-12-22T12:59:07.695Z,5.73
2018-12-22T13:01:36.533Z,5.73
2018-12-22T13:04:04.788Z,5.63
2018-12-22T13:06:33.336Z,5.00
2018-12-22T13:09:01.935Z,5.60
2018-12-22T13:11:30.027Z,6.73
2018-12-22T13:17:37.030Z,3.93
2018-12-22T13:20:06.595Z,4.73
2018-12-22T13:22:34.710Z,6.27
2018-12-22T13:25:03.203Z,6.90
2018-12-22T13:27:31.308Z,7.97
2018-12-22T13:29:59.375Z,6.87
2018-12-22T13:32:27.855Z,6.80
2018-12-22T13:34:57.059Z,9.93
2018-12-22T13:37:25.665Z,5.57
2018-12-22T13:39:53.828Z,5.97
2018-12-22T13:42:22.063Z,6.30
2018-12-22T13:44:50.341Z,6.50
2018-12-22T13:47:18.711Z,5.57
2018-12-22T13:49:47.158Z,7.37
2018-12-22T13:52:15.421Z,6.97
2018-12-22T13:54:43.875Z,9.53
2018-12-22T13:57:12.428Z,6.07
2018-12-22T13:59:41.357Z,6.83
2018-12-22T14:02:17.984Z,7.47
2018-12-22T14:04:41.889Z,8.80
2018-12-22T14:07:11.648Z,9.27
2018-12-22T14:09:39.789Z,7.80
2018-12-22T14:12:08.567Z,9.37
2018-12-22T14:14:39.188Z,11.63
2018-12-22T14:17:12.931Z,13.97
2018-12-22T14:19:45.512Z,10.20
2018-12-22T14:22:13.835Z,13.33
2018-12-22T14:24:45.443Z,9.37
2018-12-22T14:27:13.877Z,11.37
2018-12-22T14:29:42.435Z,9.07
2018-12-22T14:32:10.623Z,10.07
2018-12-22T14:34:57.020Z,11.87
2018-12-22T14:37:25.124Z,13.60
2018-12-22T14:39:53.388Z,9.50
2018-12-22T14:42:21.623Z,11.33
2018-12-22T14:44:49.870Z,9.43
2018-12-22T14:47:18.061Z,9.83
2018-12-22T14:49:46.384Z,9.57
2018-12-22T14:52:14.625Z,9.60
2018-12-22T14:54:42.855Z,11.77
2018-12-22T14:57:11.996Z,11.60
2018-12-22T14:59:40.236Z,12.83
2018-12-22T15:02:08.549Z,10.90
2018-12-22T15:04:36.703Z,12.73
2018-12-22T15:07:05.895Z,13.00
2018-12-22T15:09:34.027Z,13.93
2018-12-22T15:12:02.304Z,20.23
2018-12-22T15:14:30.583Z,17.93
2018-12-22T15:16:58.759Z,15.37
2018-12-22T15:19:27.116Z,14.57
2018-12-22T15:21:57.711Z,14.03
2018-12-22T15:24:25.952Z,14.40
2018-12-22T15:26:54.183Z,13.87
2018-12-22T15:29:22.475Z,14.47
2018-12-22T15:31:50.691Z,15.60
2018-12-22T15:34:18.861Z,22.90
2018-12-22T15:36:47.015Z,15.50
2018-12-22T15:39:15.171Z,15.20
2018-12-22T15:41:43.287Z,14.33
2018-12-22T15:44:11.452Z,14.57
2018-12-22T15:46:39.652Z,17.10
2018-12-22T15:49:08.115Z,18.17
2018-12-22T15:51:36.295Z,15.80
2018-12-22T15:54:04.602Z,21.07
2018-12-22T15:56:32.740Z,21.50
2018-12-22T15:59:01.199Z,22.27
2018-12-22T16:01:29.332Z,16.60
2018-12-22T16:03:57.527Z,19.30
2018-12-22T16:06:25.743Z,19.77
2018-12-22T16:08:54.014Z,17.47
2018-12-22T16:11:22.160Z,20.37
2018-12-22T16:13:50.340Z,19.67
2018-12-22T16:16:18.634Z,21.03
2018-12-22T16:18:46.806Z,29.97
2018-12-22T16:21:14.983Z,22.07
2018-12-22T16:23:43.064Z,23.37
2018-12-22T16:26:11.127Z,26.10
2018-12-22T16:28:43.948Z,21.40
2018-12-22T16:31:12.094Z,22.50
2018-12-22T16:33:40.244Z,19.93
2018-12-22T16:36:08.472Z,18.53
2018-12-22T16:38:36.660Z,36.43
2018-12-22T16:41:04.951Z,43.70
2018-12-22T16:43:33.100Z,18.90
2018-12-22T16:46:01.364Z,15.10
2018-12-22T16:48:29.551Z,14.70
2018-12-22T16:50:57.859Z,18.67
2018-12-22T16:53:26.195Z,22.40
2018-12-22T16:55:54.471Z,23.27
2018-12-22T16:58:39.207Z,25.23
2018-12-22T17:01:15.186Z,28.90
2018-12-22T17:03:43.992Z,26.53
2018-12-22T17:06:13.043Z,20.00
2018-12-22T17:08:41.292Z,22.13
2018-12-22T17:11:09.559Z,32.83
2018-12-22T17:13:37.692Z,24.93
2018-12-22T17:16:05.951Z,29.33
2018-12-22T17:18:34.291Z,30.90
2018-12-22T17:21:12.459Z,31.97
2018-12-22T17:23:45.854Z,41.00
2018-12-22T17:26:14.147Z,43.17
2018-12-22T17:28:42.443Z,39.57
2018-12-22T17:31:10.582Z,28.60
2018-12-22T17:33:38.799Z,35.53
2018-12-22T17:36:08.250Z,31.90
2018-12-22T17:38:37.296Z,34.57
2018-12-22T17:41:05.816Z,37.00
2018-12-22T17:43:35.479Z,47.57
2018-12-22T17:46:03.628Z,39.13
2018-12-22T17:48:31.915Z,42.40
2018-12-22T17:51:00.112Z,47.40
2018-12-22T17:53:28.919Z,45.50
2018-12-22T17:55:57.320Z,49.60
2018-12-22T17:58:26.300Z,57.17
2018-12-22T18:00:54.667Z,53.37
2018-12-22T18:03:27.548Z,46.13
2018-12-22T18:05:55.983Z,53.30
2018-12-22T18:08:24.334Z,60.13
2018-12-22T18:10:52.543Z,49.10
2018-12-22T18:13:21.453Z,50.97
2018-12-22T18:15:49.551Z,62.13
2018-12-22T18:18:17.835Z,66.80
2018-12-22T18:20:46.091Z,69.13
2018-12-22T18:23:14.537Z,62.83
2018-12-22T18:25:43.367Z,62.93
2018-12-22T18:28:11.467Z,56.57
2018-12-22T18:30:39.584Z,67.23
2018-12-22T18:33:08.793Z,56.57
2018-12-22T18:35:37.132Z,60.37
2018-12-22T18:38:09.975Z,59.20
2018-12-22T18:40:38.119Z,68.33
2018-12-22T18:43:07.397Z,72.50
2018-12-22T18:45:35.887Z,71.37
2018-12-22T18:48:04.517Z,65.33
2018-12-22T18:50:32.979Z,63.07
2018-12-22T18:53:01.054Z,62.97
2018-12-22T18:55:29.702Z,56.00
2018-12-22T18:58:00.117Z,63.77
2018-12-22T19:00:28.923Z,58.27
2018-12-22T19:02:57.090Z,70.43
2018-12-22T19:05:25.366Z,80.07
2018-12-22T19:07:57.112Z,63.00
2018-12-22T19:10:30.096Z,64.50
2018-12-22T19:14:01.099Z,72.80
2018-12-22T19:16:29.224Z,82.50
2018-12-22T19:18:57.387Z,74.80
2018-12-22T19:21:26.266Z,74.50
2018-12-22T19:23:54.402Z,65.60
2018-12-22T19:26:22.587Z,75.20
2018-12-22T19:28:50.896Z,73.37
2018-12-22T19:31:19.028Z,76.07
2018-12-22T19:33:53.446Z,74.10
2018-12-22T19:36:17.691Z,82.23
2018-12-22T19:38:45.845Z,84.93
2018-12-22T19:41:14.007Z,65.57
2018-12-22T19:43:42.748Z,81.00
2018-12-22T19:46:10.895Z,93.63
2018-12-22T19:48:39.103Z,78.07
2018-12-22T19:51:07.359Z,66.80
2018-12-22T19:53:35.481Z,69.97
2018-12-22T19:56:03.732Z,76.23
2018-12-22T19:58:31.972Z,70.47
2018-12-22T20:01:00.179Z,76.07
2018-12-22T20:03:28.844Z,73.53
2018-12-22T20:05:56.971Z,81.30
2018-12-22T20:08:25.104Z,55.63
2018-12-22T20:10:53.204Z,66.63
2018-12-22T20:13:21.289Z,66.67
2018-12-22T20:15:49.582Z,59.23
2018-12-22T20:18:17.740Z,49.83
2018-12-22T20:20:45.831Z,57.00
2018-12-22T20:23:14.101Z,58.03
2018-12-22T20:25:42.718Z,48.87
2018-12-22T20:28:10.956Z,48.97
2018-12-22T20:30:39.158Z,42.20
2018-12-22T20:33:08.031Z,52.33
2018-12-22T20:35:36.099Z,40.30
2018-12-22T20:38:04.417Z,46.53
2018-12-22T20:40:33.475Z,44.37
2018-12-22T20:43:01.724Z,37.77
2018-12-22T20:45:29.867Z,43.07
2018-12-22T20:47:57.939Z,35.90
2018-12-22T20:50:26.179Z,33.17
2018-12-22T20:52:54.251Z,35.93
2018-12-22T20:55:22.479Z,38.70
2018-12-22T20:57:50.975Z,34.37
2018-12-22T21:00:19.151Z,36.10
2018-12-22T21:02:47.403Z,41.30
2018-12-22T21:05:17.207Z,43.80
2018-12-22T21:07:45.379Z,38.20
2018-12-22T21:10:13.486Z,37.17
2018-12-22T21:12:41.631Z,36.67
2018-12-22T21:15:09.895Z,32.87
2018-12-22T21:17:38.012Z,27.47
2018-12-22T21:20:06.719Z,32.50
2018-12-22T21:22:34.871Z,38.47
2018-12-22T21:25:03.245Z,32.20
2018-12-22T21:27:31.399Z,31.60
2018-12-22T21:29:59.495Z,38.73
2018-12-22T21:32:27.795Z,35.90
2018-12-22T21:34:56.614Z,34.47
2018-12-22T21:37:24.697Z,37.90
2018-12-22T21:39:52.791Z,39.97
2018-12-22T21:42:20.859Z,44.27
2018-12-22T21:44:48.975Z,47.90
2018-12-22T21:47:17.124Z,47.77
2018-12-22T21:49:45.375Z,40.10
2018-12-22T21:52:13.571Z,39.73
2018-12-22T21:54:41.847Z,50.67
2018-12-22T21:57:09.918Z,46.90
2018-12-22T21:59:38.079Z,41.83
2018-12-22T22:02:06.339Z,38.90
2018-12-22T22:04:37.155Z,48.50
2018-12-22T22:07:04.690Z,46.60
2018-12-22T22:09:33.128Z,45.73
2018-12-22T22:12:01.280Z,43.70
2018-12-22T22:14:29.351Z,37.83
2018-12-22T22:16:57.787Z,56.47
2018-12-22T22:19:25.941Z,46.43
2018-12-22T22:21:54.188Z,50.03
2018-12-22T22:24:22.455Z,40.10
2018-12-22T22:26:51.287Z,40.00
2018-12-22T22:29:19.363Z,39.83
2018-12-22T22:31:47.693Z,40.73
2018-12-22T22:34:15.825Z,51.80
2018-12-22T22:36:43.955Z,48.93
2018-12-22T22:39:12.044Z,51.13
2018-12-22T22:41:40.211Z,48.47
2018-12-22T22:44:08.503Z,51.97
2018-12-22T22:46:36.676Z,49.80
2018-12-22T22:49:04.824Z,49.20
2018-12-22T22:51:33.846Z,47.73
2018-12-22T22:54:01.979Z,53.30
2018-12-22T22:56:30.115Z,51.83
2018-12-22T22:58:58.269Z,57.73
2018-12-22T23:01:26.576Z,50.30
2018-12-22T23:03:55.969Z,55.47
2018-12-22T23:06:24.873Z,43.13
2018-12-22T23:08:53.664Z,56.00
2018-12-22T23:11:23.251Z,59.03
2018-12-22T23:13:51.766Z,58.07
2018-12-22T23:16:19.971Z,39.93
2018-12-22T23:18:48.815Z,48.63
2018-12-22T23:21:17.197Z,55.97
2018-12-22T23:23:45.303Z,56.07
2018-12-22T23:26:13.842Z,56.87
2018-12-22T23:28:42.459Z,63.63
2018-12-22T23:31:10.647Z,55.63
2018-12-22T23:33:39.727Z,62.93
2018-12-22T23:36:09.483Z,54.53
2018-12-22T23:38:37.778Z,48.47
2018-12-22T23:41:06.619Z,64.03
2018-12-22T23:43:35.224Z,62.40
2018-12-22T23:46:03.747Z,61.97
2018-12-22T23:48:31.907Z,60.03
2018-12-22T23:51:00.012Z,50.30
2018-12-22T23:53:28.499Z,60.77
2018-12-22T23:55:56.855Z,56.67
2018-12-22T23:58:25.228Z,55.07
